Time;durP1;ratioP1;P1;durP2;ratioP2;P2;SDS_P1;SDS_P2;PMS_P1;PMS_P2;Temp;Humidity;BMP_temperature;BMP_pressure;BME280_temperature;BME280_humidity;BME280_pressure;Samples;Min_cycle;Max_cycle;Signal;HPM_P1;HPM_P2
2023/05/12 00:01:06;;;;;;;12.17;7.40;;;9.70;99.90;;;;;;5036068;28;20180;-61
2023/05/12 00:03:32;;;;;;;50.53;24.80;;;9.70;99.90;;;;;;5037621;28;20434;-61
2023/05/12 00:06:02;;;;;;;24.53;14.13;;;9.70;99.90;;;;;;5039421;28;20429;-61
2023/05/12 00:08:28;;;;;;;22.13;13.43;;;9.70;99.90;;;;;;5045621;28;20258;-61
2023/05/12 00:10:54;;;;;;;25.23;13.43;;;9.70;99.90;;;;;;5040357;28;20513;-60
2023/05/12 00:13:22;;;;;;;27.87;14.73;;;9.70;99.90;;;;;;5045402;28;20588;-61
2023/05/12 00:15:48;;;;;;;16.67;10.23;;;9.70;99.90;;;;;;5035421;28;20176;-60
2023/05/12 00:18:14;;;;;;;16.13;9.30;;;9.70;99.90;;;;;;5044990;28;20430;-60
2023/05/12 00:20:40;;;;;;;10.70;7.37;;;9.70;99.90;;;;;;5039491;28;20432;-61
2023/05/12 00:23:05;;;;;;;12.63;6.70;;;9.70;99.90;;;;;;5033544;28;20745;-61
2023/05/12 00:25:31;;;;;;;13.77;7.50;;;9.70;99.90;;;;;;5041665;28;20191;-61
2023/05/12 00:27:57;;;;;;;12.60;8.00;;;9.70;99.90;;;;;;5041635;28;20175;-61
2023/05/12 00:30:22;;;;;;;19.57;9.70;;;9.60;99.90;;;;;;5039163;28;20198;-61
2023/05/12 00:32:48;;;;;;;20.23;12.23;;;9.60;99.90;;;;;;5039243;28;20218;-61
2023/05/12 00:35:15;;;;;;;26.17;12.93;;;9.60;99.90;;;;;;5039912;28;20184;-61
2023/05/12 00:37:41;;;;;;;13.30;8.77;;;9.60;99.90;;;;;;5044801;28;20175;-61
2023/05/12 00:40:08;;;;;;;12.30;8.67;;;9.60;99.90;;;;;;5033992;28;21092;-61
2023/05/12 00:42:34;;;;;;;7.53;5.83;;;9.60;99.90;;;;;;5034144;28;20554;-61
2023/05/12 00:45:00;;;;;;;6.97;5.50;;;9.50;99.90;;;;;;5036938;28;20445;-61
2023/05/12 00:47:26;;;;;;;6.13;5.53;;;9.50;99.90;;;;;;5045108;28;20414;-62
2023/05/12 00:49:52;;;;;;;12.43;6.30;;;9.50;99.90;;;;;;5040125;28;20187;-61
2023/05/12 00:52:18;;;;;;;8.37;5.30;;;9.50;99.90;;;;;;5041016;28;20625;-61
2023/05/12 00:54:45;;;;;;;7.37;5.60;;;9.50;99.90;;;;;;5041627;28;20434;-61
2023/05/12 00:57:11;;;;;;;8.20;6.00;;;9.50;99.90;;;;;;5034495;28;20508;-61
2023/05/12 00:59:37;;;;;;;7.23;5.60;;;9.50;99.90;;;;;;5017310;28;20495;-61
2023/05/12 01:02:03;;;;;;;7.73;6.10;;;9.40;99.90;;;;;;5029107;28;20466;-60
2023/05/12 01:04:28;;;;;;;7.83;6.63;;;9.50;99.90;;;;;;5034877;28;20183;-61
2023/05/12 01:07:00;;;;;;;12.00;7.30;;;9.50;99.90;;;;;;5033718;28;20442;-61
2023/05/12 01:09:26;;;;;;;13.57;7.60;;;9.50;99.90;;;;;;5032641;28;20199;-60
2023/05/12 01:11:51;;;;;;;12.80;7.57;;;9.40;99.90;;;;;;5017807;28;20454;-61
2023/05/12 01:14:17;;;;;;;15.70;7.77;;;9.40;99.90;;;;;;5032977;28;20199;-64
2023/05/12 01:16:50;;;;;;;11.70;7.40;;;9.40;99.90;;;;;;5035261;28;20186;-60
2023/05/12 01:19:42;;;;;;;11.00;7.20;;;9.30;99.90;;;;;;5028859;28;20180;-61
2023/05/12 01:22:09;;;;;;;23.13;10.53;;;9.40;99.90;;;;;;5030399;28;20457;-61
2023/05/12 01:24:44;;;;;;;15.73;7.07;;;9.30;99.90;;;;;;5034294;28;21007;-60
2023/05/12 01:27:11;;;;;;;48.53;17.50;;;9.40;99.90;;;;;;5033865;28;20432;-61
2023/05/12 01:29:37;;;;;;;36.50;14.03;;;9.40;99.90;;;;;;5033530;28;20445;-61
2023/05/12 01:32:03;;;;;;;30.70;12.37;;;9.30;99.90;;;;;;5033497;28;20508;-60
2023/05/12 01:34:34;;;;;;;9.00;6.13;;;9.30;99.90;;;;;;5035703;28;20430;-60
2023/05/12 01:37:00;;;;;;;9.40;5.70;;;9.30;99.90;;;;;;5037297;28;20677;-61
2023/05/12 01:39:26;;;;;;;9.07;5.53;;;9.30;99.90;;;;;;5041297;28;20541;-61
2023/05/12 01:41:51;;;;;;;8.07;6.10;;;9.30;99.90;;;;;;5035930;28;20655;-62
2023/05/12 01:44:17;;;;;;;9.27;5.97;;;9.30;99.90;;;;;;5016256;28;20179;-61
2023/05/12 01:46:42;;;;;;;8.20;5.83;;;9.30;99.90;;;;;;5021301;28;20176;-61
2023/05/12 01:49:08;;;;;;;9.80;6.20;;;9.30;99.90;;;;;;5033352;28;20528;-62
2023/05/12 01:51:33;;;;;;;11.43;7.10;;;9.20;99.90;;;;;;5033744;28;20297;-61
2023/05/12 01:53:59;;;;;;;11.50;7.53;;;9.20;99.90;;;;;;5033398;28;20208;-62
2023/05/12 01:56:25;;;;;;;9.07;6.40;;;9.20;99.90;;;;;;5020910;28;20187;-62
2023/05/12 01:58:51;;;;;;;10.20;6.50;;;9.20;99.90;;;;;;5018417;28;20250;-62
2023/05/12 02:01:16;;;;;;;8.23;6.57;;;9.20;99.90;;;;;;5032309;28;20457;-61
2023/05/12 02:03:42;;;;;;;10.90;6.20;;;9.20;99.90;;;;;;5039194;28;20215;-61
2023/05/12 02:06:08;;;;;;;12.43;7.67;;;9.20;99.90;;;;;;5035263;28;20653;-61
2023/05/12 02:08:33;;;;;;;12.73;7.40;;;9.20;99.90;;;;;;5032625;28;20433;-61
2023/05/12 02:11:08;;;;;;;14.07;7.37;;;9.20;99.90;;;;;;5033377;28;20215;-60
2023/05/12 02:13:34;;;;;;;15.57;7.20;;;9.20;99.90;;;;;;5032954;28;20248;-62
2023/05/12 02:16:00;;;;;;;15.37;8.00;;;9.20;99.90;;;;;;5037012;28;20952;-62
2023/05/12 02:18:26;;;;;;;20.33;9.47;;;9.10;99.90;;;;;;5043607;28;20184;-61
2023/05/12 02:20:52;;;;;;;17.10;9.23;;;9.20;99.90;;;;;;5024268;28;20418;-61
2023/05/12 02:23:18;;;;;;;16.83;9.17;;;9.20;99.90;;;;;;5038002;28;20554;-62
2023/05/12 02:25:43;;;;;;;16.47;9.10;;;9.20;99.90;;;;;;5039304;28;20432;-62
2023/05/12 02:28:10;;;;;;;19.07;9.70;;;9.20;99.90;;;;;;5043136;28;20214;-61
2023/05/12 02:30:36;;;;;;;24.63;9.77;;;9.20;99.90;;;;;;5046289;28;20238;-62
2023/05/12 02:33:04;;;;;;;17.40;9.33;;;9.20;99.90;;;;;;5037585;28;20986;-60
2023/05/12 02:35:30;;;;;;;20.10;9.10;;;9.20;99.90;;;;;;5026935;28;21874;-60
2023/05/12 02:37:56;;;;;;;23.33;9.57;;;9.20;99.90;;;;;;5044399;28;20437;-60
2023/05/12 02:40:21;;;;;;;24.00;10.20;;;9.20;99.90;;;;;;5031646;28;20432;-60
2023/05/12 02:42:47;;;;;;;31.43;12.03;;;9.20;99.90;;;;;;5039603;28;20195;-60
2023/05/12 02:45:12;;;;;;;34.53;14.13;;;9.20;99.90;;;;;;5045196;28;20179;-61
2023/05/12 02:47:38;;;;;;;24.17;11.03;;;9.20;99.90;;;;;;5041713;28;20187;-61
2023/05/12 02:50:04;;;;;;;21.23;10.60;;;9.20;99.90;;;;;;5046290;28;20261;-61
2023/05/12 02:52:30;;;;;;;18.87;9.10;;;9.20;99.90;;;;;;5039746;28;20212;-61
2023/05/12 02:54:55;;;;;;;23.93;9.50;;;9.20;99.90;;;;;;5047264;28;21240;-61
2023/05/12 02:57:21;;;;;;;18.20;9.60;;;9.20;99.90;;;;;;5035632;28;20182;-61
2023/05/12 02:59:46;;;;;;;17.03;9.17;;;9.20;99.90;;;;;;5036947;28;20183;-61
2023/05/12 03:02:12;;;;;;;14.77;7.40;;;9.20;99.90;;;;;;5036530;28;20241;-61
2023/05/12 03:04:38;;;;;;;16.30;8.93;;;9.10;99.90;;;;;;5036860;28;20183;-60
2023/05/12 03:07:04;;;;;;;20.10;9.80;;;9.10;99.90;;;;;;5038464;28;20191;-61
2023/05/12 03:09:29;;;;;;;19.83;9.20;;;9.10;99.90;;;;;;5034377;28;20184;-61
2023/05/12 03:11:55;;;;;;;16.97;9.00;;;9.10;99.90;;;;;;5036052;28;20196;-61
2023/05/12 03:14:20;;;;;;;16.60;8.60;;;9.10;99.90;;;;;;5037342;28;20183;-61
2023/05/12 03:16:46;;;;;;;18.47;8.73;;;9.00;99.90;;;;;;5035827;28;20252;-61
2023/05/12 03:19:11;;;;;;;24.50;11.17;;;9.00;99.90;;;;;;5022750;28;20187;-62
2023/05/12 03:21:37;;;;;;;25.80;10.43;;;9.00;99.90;;;;;;5036801;28;20667;-62
2023/05/12 03:24:03;;;;;;;27.80;9.90;;;9.00;99.90;;;;;;5037073;28;20249;-60
2023/05/12 03:26:29;;;;;;;25.57;10.90;;;9.00;99.90;;;;;;5036679;28;20179;-60
2023/05/12 03:28:55;;;;;;;34.57;10.60;;;8.90;99.90;;;;;;5036461;28;20441;-60
2023/05/12 03:31:20;;;;;;;20.83;9.33;;;8.90;99.90;;;;;;5036829;28;20450;-60
2023/05/12 03:33:46;;;;;;;19.50;8.70;;;8.90;99.90;;;;;;5033308;28;20302;-61
2023/05/12 03:36:11;;;;;;;19.73;9.17;;;8.90;99.90;;;;;;5035195;28;20218;-60
2023/05/12 03:38:37;;;;;;;32.23;9.40;;;8.90;99.90;;;;;;5036662;28;20198;-60
2023/05/12 03:41:06;;;;;;;21.83;8.60;;;8.80;99.90;;;;;;5019711;28;20168;-60
2023/05/12 03:43:32;;;;;;;15.87;8.00;;;8.80;99.90;;;;;;5035314;28;20563;-60
2023/05/12 03:45:58;;;;;;;46.67;8.17;;;8.70;99.90;;;;;;5035686;28;20492;-60
2023/05/12 03:48:24;;;;;;;15.30;6.80;;;8.70;99.90;;;;;;5038733;28;20433;-60
2023/05/12 03:50:50;;;;;;;13.67;7.73;;;8.60;99.90;;;;;;5034198;28;20222;-60
2023/05/12 03:53:15;;;;;;;13.40;8.03;;;8.60;99.90;;;;;;5033612;28;20478;-56
2023/05/12 03:55:41;;;;;;;13.20;8.13;;;8.60;99.90;;;;;;5018947;28;20178;-56
2023/05/12 03:58:07;;;;;;;19.70;9.03;;;8.60;99.90;;;;;;5034652;28;20516;-56
2023/05/12 04:00:33;;;;;;;29.77;9.00;;;8.50;99.90;;;;;;5033056;28;20187;-55
2023/05/12 04:02:58;;;;;;;78.60;10.47;;;8.50;99.90;;;;;;5034191;28;20293;-58
2023/05/12 04:05:24;;;;;;;52.07;9.83;;;8.50;99.90;;;;;;5038896;28;20536;-56
2023/05/12 04:07:50;;;;;;;26.60;10.50;;;8.40;99.90;;;;;;5046855;28;20207;-61
2023/05/12 04:10:16;;;;;;;30.17;9.67;;;8.40;99.90;;;;;;5042994;28;20192;-61
2023/05/12 04:12:41;;;;;;;18.50;8.87;;;8.40;99.90;;;;;;5039746;28;20203;-62
2023/05/12 04:15:07;;;;;;;25.80;9.60;;;8.50;99.90;;;;;;5039316;28;20183;-61
2023/05/12 04:17:33;;;;;;;20.93;9.37;;;8.50;99.90;;;;;;5029693;28;20175;-63
2023/05/12 04:19:59;;;;;;;21.10;11.30;;;8.50;99.90;;;;;;5040165;28;20211;-61
2023/05/12 04:22:25;;;;;;;18.43;9.40;;;8.60;99.90;;;;;;5020652;28;21002;-60
2023/05/12 04:24:51;;;;;;;19.60;9.70;;;8.60;99.90;;;;;;5039800;28;21049;-61
2023/05/12 04:27:16;;;;;;;18.53;9.57;;;8.60;99.90;;;;;;5041870;28;20185;-60
2023/05/12 04:29:42;;;;;;;24.90;10.47;;;8.60;99.90;;;;;;5021764;28;20181;-61
2023/05/12 04:32:08;;;;;;;15.70;8.93;;;8.70;99.90;;;;;;5037578;28;20291;-61
2023/05/12 04:34:34;;;;;;;14.13;6.90;;;8.70;99.90;;;;;;5036542;28;20181;-61
2023/05/12 04:36:59;;;;;;;10.70;7.23;;;8.70;99.90;;;;;;5029280;28;20187;-62
2023/05/12 04:39:26;;;;;;;12.40;6.50;;;8.60;99.90;;;;;;5032116;28;20963;-62
2023/05/12 04:41:52;;;;;;;11.20;6.10;;;8.60;99.90;;;;;;5039352;28;20194;-62
2023/05/12 04:44:17;;;;;;;8.70;6.20;;;8.70;99.90;;;;;;5041846;28;20441;-62
2023/05/12 04:46:43;;;;;;;8.20;6.30;;;8.70;99.90;;;;;;5038987;28;20769;-61
2023/05/12 04:49:08;;;;;;;14.33;6.80;;;8.70;99.90;;;;;;5040575;28;20172;-61
2023/05/12 04:51:40;;;;;;;10.70;6.80;;;8.70;99.90;;;;;;5016357;28;20211;-61
2023/05/12 04:54:09;;;;;;;7.30;5.90;;;8.70;99.90;;;;;;5034028;28;20338;-61
2023/05/12 04:56:36;;;;;;;9.90;7.40;;;8.70;99.90;;;;;;5033173;28;20417;-61
2023/05/12 04:59:01;;;;;;;9.50;6.50;;;8.70;99.90;;;;;;5033999;28;20525;-61
2023/05/12 05:01:27;;;;;;;15.83;6.17;;;8.70;99.90;;;;;;5032712;28;20545;-60
2023/05/12 05:03:52;;;;;;;9.00;6.60;;;8.70;99.90;;;;;;5031332;28;20183;-61
2023/05/12 05:06:18;;;;;;;12.20;6.27;;;8.80;99.90;;;;;;5033738;28;20182;-61
2023/05/12 05:08:44;;;;;;;10.23;7.43;;;8.80;99.90;;;;;;5033089;28;20207;-62
2023/05/12 05:11:09;;;;;;;11.00;6.47;;;8.90;99.90;;;;;;5033343;28;20179;-60
2023/05/12 05:13:35;;;;;;;8.30;6.60;;;8.90;99.90;;;;;;5031982;28;20202;-62
2023/05/12 05:16:00;;;;;;;15.60;6.30;;;8.90;99.90;;;;;;5030637;28;20190;-62
2023/05/12 05:18:27;;;;;;;10.23;7.10;;;9.00;99.90;;;;;;5029822;28;21613;-62
2023/05/12 05:20:53;;;;;;;9.33;6.70;;;8.90;99.90;;;;;;5030618;28;20209;-62
2023/05/12 05:23:19;;;;;;;9.03;7.10;;;8.90;99.90;;;;;;5032797;28;20442;-62
2023/05/12 05:25:45;;;;;;;10.10;6.63;;;8.90;99.90;;;;;;5032291;28;20433;-61
2023/05/12 05:28:10;;;;;;;9.23;6.63;;;8.90;99.90;;;;;;5036139;28;20203;-61
2023/05/12 05:30:36;;;;;;;10.50;7.30;;;8.90;99.90;;;;;;5034311;28;20683;-62
2023/05/12 05:33:02;;;;;;;9.90;6.63;;;8.90;99.90;;;;;;5036070;28;20242;-61
2023/05/12 05:35:29;;;;;;;11.57;7.53;;;8.90;99.90;;;;;;5037722;28;20177;-61
2023/05/12 05:37:54;;;;;;;10.17;7.47;;;8.90;99.90;;;;;;5042550;28;20198;-62
2023/05/12 05:40:20;;;;;;;11.07;8.33;;;8.90;99.90;;;;;;5038416;28;20433;-62
2023/05/12 05:42:46;;;;;;;11.13;7.90;;;8.90;99.90;;;;;;5036425;28;20196;-61
2023/05/12 05:45:11;;;;;;;16.90;10.00;;;9.00;99.90;;;;;;5037527;28;20426;-61
2023/05/12 05:47:37;;;;;;;13.77;9.30;;;9.00;99.90;;;;;;5039458;28;20651;-61
2023/05/12 05:50:03;;;;;;;16.37;9.37;;;9.00;99.90;;;;;;5028953;28;20879;-61
2023/05/12 05:52:29;;;;;;;16.67;10.53;;;9.10;99.90;;;;;;5041617;28;20208;-62
2023/05/12 05:54:54;;;;;;;27.30;13.13;;;9.00;99.90;;;;;;5046801;28;20464;-62
2023/05/12 05:57:20;;;;;;;24.93;12.83;;;9.10;99.90;;;;;;5038854;28;20690;-62
2023/05/12 05:59:46;;;;;;;22.37;12.17;;;9.10;99.90;;;;;;5054580;28;20171;-62
2023/05/12 06:02:11;;;;;;;30.47;13.47;;;9.10;99.90;;;;;;5040265;28;20583;-62
2023/05/12 06:04:37;;;;;;;25.57;12.90;;;9.10;99.90;;;;;;5043960;28;20266;-62
2023/05/12 06:07:03;;;;;;;29.90;13.10;;;9.10;99.90;;;;;;5040156;28;20643;-62
2023/05/12 06:09:28;;;;;;;35.90;15.77;;;9.20;99.90;;;;;;5037579;28;20176;-62
2023/05/12 06:11:54;;;;;;;29.27;14.30;;;9.20;99.90;;;;;;5049157;28;20616;-62
2023/05/12 06:14:20;;;;;;;28.07;15.20;;;9.30;99.90;;;;;;5049633;28;20920;-62
2023/05/12 06:16:45;;;;;;;32.10;16.90;;;9.30;99.90;;;;;;5043606;28;20678;-61
2023/05/12 06:19:11;;;;;;;41.37;17.73;;;9.40;99.90;;;;;;5047927;28;20217;-62
2023/05/12 06:21:37;;;;;;;39.57;18.17;;;9.40;99.90;;;;;;5052233;28;20195;-61
2023/05/12 06:24:03;;;;;;;35.07;18.70;;;9.50;99.90;;;;;;5029437;28;20199;-61
2023/05/12 06:26:29;;;;;;;34.90;18.00;;;9.50;99.90;;;;;;5017744;28;20453;-62
2023/05/12 06:28:55;;;;;;;37.57;19.87;;;9.60;99.90;;;;;;5045348;28;20179;-61
2023/05/12 06:31:20;;;;;;;36.47;18.17;;;9.60;99.90;;;;;;5043518;28;20195;-63
2023/05/12 06:33:46;;;;;;;45.37;19.30;;;9.60;99.90;;;;;;5045024;28;20477;-63
2023/05/12 06:36:12;;;;;;;49.27;20.13;;;9.70;99.90;;;;;;5043900;28;20202;-62
2023/05/12 06:38:37;;;;;;;43.20;20.80;;;9.70;99.90;;;;;;5050933;28;20507;-62
2023/05/12 06:41:03;;;;;;;48.77;23.70;;;9.80;99.90;;;;;;5046500;28;20192;-61
2023/05/12 06:43:29;;;;;;;50.93;23.13;;;9.90;99.90;;;;;;5039700;28;20175;-62
2023/05/12 06:45:55;;;;;;;54.10;23.43;;;9.90;99.90;;;;;;5048782;28;20183;-62
2023/05/12 06:48:22;;;;;;;41.37;20.73;;;10.00;99.90;;;;;;5045501;28;20183;-61
2023/05/12 06:50:47;;;;;;;33.40;18.73;;;10.00;99.90;;;;;;5039309;28;20489;-62
2023/05/12 06:53:13;;;;;;;29.03;15.03;;;10.10;99.90;;;;;;5040206;28;21076;-61
2023/05/12 06:55:39;;;;;;;30.37;15.17;;;10.20;99.90;;;;;;5041651;28;20262;-62
2023/05/12 06:58:05;;;;;;;25.07;14.47;;;10.20;99.90;;;;;;5053303;28;20183;-62
2023/05/12 07:00:30;;;;;;;24.20;13.93;;;10.30;99.90;;;;;;5037951;28;20317;-61
2023/05/12 07:02:56;;;;;;;25.50;13.50;;;10.40;99.90;;;;;;5047493;28;20207;-62
2023/05/12 07:05:22;;;;;;;19.93;10.97;;;10.50;99.90;;;;;;5038903;28;20183;-62
2023/05/12 07:07:47;;;;;;;17.27;10.53;;;10.60;99.90;;;;;;5028766;28;20186;-62
2023/05/12 07:10:13;;;;;;;15.70;10.23;;;10.60;99.90;;;;;;5038980;28;20183;-62
2023/05/12 07:12:39;;;;;;;18.33;10.37;;;10.70;99.90;;;;;;5043857;28;20203;-62
2023/05/12 07:15:06;;;;;;;18.10;10.50;;;10.70;99.90;;;;;;5035428;28;20461;-62
2023/05/12 07:17:31;;;;;;;15.00;9.97;;;10.70;99.90;;;;;;5033738;28;20179;-62
2023/05/12 07:19:57;;;;;;;13.93;9.40;;;10.80;99.90;;;;;;5044593;28;20457;-62
2023/05/12 07:22:23;;;;;;;19.50;10.67;;;10.90;99.90;;;;;;5022287;28;20733;-62
2023/05/12 07:24:49;;;;;;;12.27;8.30;;;11.00;99.90;;;;;;5037205;28;20190;-62
2023/05/12 07:27:15;;;;;;;17.10;10.10;;;11.20;99.90;;;;;;5034156;28;20191;-62
2023/05/12 07:29:40;;;;;;;13.00;8.60;;;11.40;99.90;;;;;;5037222;28;20430;-62
2023/05/12 07:32:06;;;;;;;13.50;8.80;;;11.50;99.90;;;;;;5032173;28;20450;-62
2023/05/12 07:34:32;;;;;;;12.73;8.90;;;11.50;99.90;;;;;;5045536;28;20175;-61
2023/05/12 07:37:01;;;;;;;15.13;10.30;;;11.50;99.90;;;;;;5045945;28;20593;-62
2023/05/12 07:39:27;;;;;;;16.40;10.30;;;11.50;99.90;;;;;;5041258;28;20604;-62
2023/05/12 07:41:54;;;;;;;13.10;9.63;;;11.50;99.90;;;;;;5041233;28;20524;-62
2023/05/12 07:44:20;;;;;;;14.03;9.20;;;11.60;99.90;;;;;;5036630;28;20967;-62
2023/05/12 07:46:45;;;;;;;17.33;9.20;;;11.60;99.90;;;;;;5038676;28;20494;-62
2023/05/12 07:49:11;;;;;;;14.50;8.40;;;11.70;99.90;;;;;;5036798;28;20437;-62
2023/05/12 07:51:38;;;;;;;11.03;7.40;;;11.90;99.90;;;;;;5045878;28;20221;-61
2023/05/12 07:54:04;;;;;;;9.80;6.83;;;12.00;99.90;;;;;;5044956;28;20206;-62
2023/05/12 07:56:29;;;;;;;8.47;6.70;;;12.20;99.90;;;;;;5027987;28;20418;-62
2023/05/12 07:58:55;;;;;;;8.43;5.23;;;12.40;99.90;;;;;;5040719;28;20590;-62
2023/05/12 08:01:21;;;;;;;5.90;3.90;;;12.60;99.90;;;;;;5030250;28;20285;-62
2023/05/12 08:03:47;;;;;;;5.27;4.20;;;12.80;99.90;;;;;;5044472;28;20520;-62
2023/05/12 08:06:12;;;;;;;7.47;3.20;;;13.00;99.90;;;;;;5044283;28;20190;-62
2023/05/12 08:08:38;;;;;;;4.93;2.67;;;13.00;99.90;;;;;;5035051;28;20731;-62
2023/05/12 08:11:04;;;;;;;2.80;2.60;;;13.10;99.90;;;;;;5047554;28;20175;-61
2023/05/12 08:13:30;;;;;;;3.20;2.83;;;13.20;99.90;;;;;;5041999;28;20290;-62
2023/05/12 08:15:55;;;;;;;3.37;2.70;;;13.20;99.90;;;;;;5044734;28;20497;-62
2023/05/12 08:18:21;;;;;;;3.50;3.03;;;13.20;99.90;;;;;;5047880;28;20233;-63
2023/05/12 08:20:48;;;;;;;3.90;3.00;;;13.10;99.90;;;;;;5041865;28;20171;-62
2023/05/12 08:23:16;;;;;;;8.40;4.40;;;13.10;99.90;;;;;;5037124;28;20191;-60
2023/05/12 08:25:43;;;;;;;12.80;5.50;;;13.10;99.90;;;;;;5037981;28;20430;-61
2023/05/12 08:28:09;;;;;;;12.53;4.80;;;13.10;99.90;;;;;;5039155;28;20436;-62
2023/05/12 08:30:35;;;;;;;4.43;2.80;;;13.00;99.90;;;;;;5037794;28;20429;-61
2023/05/12 08:33:02;;;;;;;3.80;2.80;;;13.00;99.90;;;;;;5034185;28;20944;-61
2023/05/12 08:35:29;;;;;;;3.53;3.17;;;13.00;99.90;;;;;;5045151;28;20434;-62
2023/05/12 08:37:56;;;;;;;3.90;2.90;;;13.00;99.90;;;;;;5042985;28;20436;-62
2023/05/12 08:40:23;;;;;;;3.43;2.40;;;13.00;99.90;;;;;;5041226;28;20433;-58
2023/05/12 08:43:00;;;;;;;3.93;2.53;;;13.00;99.90;;;;;;5043609;28;20448;-63
2023/05/12 08:45:27;;;;;;;2.63;2.43;;;13.00;99.90;;;;;;5033226;28;20935;-62
2023/05/12 08:47:53;;;;;;;3.07;2.40;;;12.90;99.90;;;;;;5031410;28;20437;-62
2023/05/12 08:50:21;;;;;;;2.60;2.40;;;12.90;99.90;;;;;;5046761;28;21129;-63
2023/05/12 08:52:48;;;;;;;3.43;2.90;;;12.90;99.90;;;;;;5044109;28;20457;-62
2023/05/12 08:55:15;;;;;;;2.13;1.90;;;13.00;99.90;;;;;;5037882;28;20437;-63
2023/05/12 08:57:44;;;;;;;2.17;1.87;;;13.10;99.90;;;;;;5041919;28;20469;-62
2023/05/12 09:00:11;;;;;;;2.43;2.27;;;13.20;99.90;;;;;;5021262;28;20460;-62
2023/05/12 09:02:42;;;;;;;6.60;2.47;;;13.20;99.90;;;;;;5039181;28;20611;-63
2023/05/12 09:05:10;;;;;;;3.13;2.20;;;13.30;99.90;;;;;;5044443;28;20440;-63
2023/05/12 09:07:43;;;;;;;2.23;2.03;;;13.30;99.90;;;;;;5038177;28;20422;-62
2023/05/12 09:10:17;;;;;;;2.57;2.30;;;13.40;99.90;;;;;;5038998;28;20976;-63
2023/05/12 09:12:46;;;;;;;2.70;2.30;;;13.40;99.90;;;;;;5045269;28;20457;-63
2023/05/12 09:15:18;;;;;;;2.50;2.30;;;13.40;99.90;;;;;;5044404;28;20799;-62
2023/05/12 09:17:44;;;;;;;3.70;2.50;;;13.40;99.90;;;;;;5037968;28;20787;-62
2023/05/12 09:20:11;;;;;;;2.30;2.10;;;13.40;99.90;;;;;;5041946;28;20425;-62
2023/05/12 09:22:38;;;;;;;3.63;2.10;;;13.50;99.90;;;;;;5038109;28;20674;-62
2023/05/12 09:25:17;;;;;;;4.00;2.23;;;13.50;99.90;;;;;;5046093;28;20504;-65
2023/05/12 09:27:45;;;;;;;2.33;2.13;;;13.50;99.90;;;;;;5032248;28;20944;-62
2023/05/12 09:30:12;;;;;;;2.10;1.90;;;13.60;99.90;;;;;;5037479;28;20439;-62
2023/05/12 09:32:37;;;;;;;2.80;1.57;;;13.60;99.90;;;;;;5019807;28;20489;-61
2023/05/12 09:35:10;;;;;;;3.83;1.67;;;13.70;99.90;;;;;;5037056;28;20461;-62
2023/05/12 09:37:36;;;;;;;2.37;1.97;;;13.90;99.90;;;;;;5046926;28;20194;-61
2023/05/12 09:40:04;;;;;;;4.00;1.97;;;14.20;99.90;;;;;;5041844;28;20425;-62
2023/05/12 09:42:31;;;;;;;1.60;1.50;;;14.30;99.90;;;;;;5038200;28;20478;-63
2023/05/12 09:45:04;;;;;;;2.63;2.00;;;14.30;99.90;;;;;;5024095;28;20545;-61
2023/05/12 09:47:39;;;;;;;8.50;4.40;;;14.30;99.90;;;;;;5033586;28;20430;-62
2023/05/12 09:50:07;;;;;;;12.30;7.03;;;14.20;99.90;;;;;;5038101;28;20429;-62
2023/05/12 09:52:38;;;;;;;15.40;6.50;;;14.10;99.90;;;;;;5041494;28;20453;-62
2023/05/12 09:55:08;;;;;;;11.20;7.20;;;13.80;99.90;;;;;;5042798;28;20530;-61
2023/05/12 09:57:44;;;;;;;14.83;7.63;;;13.50;99.90;;;;;;5037243;28;20466;-61
2023/05/12 10:00:13;;;;;;;12.70;5.80;;;13.30;99.90;;;;;;5036632;28;20827;-62
2023/05/12 10:02:43;;;;;;;9.60;5.30;;;13.00;99.90;;;;;;5038764;28;20567;-62
2023/05/12 10:05:17;;;;;;;13.67;5.53;;;12.80;99.90;;;;;;5025239;28;20461;-62
2023/05/12 10:07:46;;;;;;;7.20;4.23;;;12.60;99.90;;;;;;5040965;28;20433;-62
2023/05/12 10:10:16;;;;;;;6.63;3.80;;;12.30;99.90;;;;;;5016196;28;20453;-61
2023/05/12 10:12:42;;;;;;;6.40;3.60;;;12.10;99.90;;;;;;5037451;28;20530;-62
2023/05/12 10:15:09;;;;;;;5.33;2.60;;;11.90;99.90;;;;;;5037452;28;20430;-58
2023/05/12 10:17:36;;;;;;;3.03;2.50;;;11.70;99.90;;;;;;5019528;28;20257;-57
2023/05/12 10:20:05;;;;;;;7.10;3.73;;;11.50;99.90;;;;;;5034733;28;20532;-59
2023/05/12 10:22:33;;;;;;;7.10;3.87;;;11.40;99.90;;;;;;5037276;28;20471;-60
2023/05/12 10:25:01;;;;;;;1.93;1.83;;;11.30;99.90;;;;;;5039175;28;20888;-59
2023/05/12 10:27:28;;;;;;;2.93;1.90;;;11.30;99.90;;;;;;5045198;28;20429;-60
2023/05/12 10:29:54;;;;;;;3.67;1.97;;;11.30;99.90;;;;;;5032836;28;20433;-60
2023/05/12 10:32:20;;;;;;;1.50;1.40;;;11.40;99.90;;;;;;5041691;28;20495;-59
2023/05/12 10:34:46;;;;;;;1.70;1.60;;;11.40;99.90;;;;;;5041587;28;20431;-60
2023/05/12 10:37:12;;;;;;;2.17;1.67;;;11.60;99.90;;;;;;5041931;28;20191;-60
2023/05/12 10:39:49;;;;;;;1.90;1.47;;;11.70;99.90;;;;;;5036958;28;20176;-59
2023/05/12 10:42:25;;;;;;;1.47;1.37;;;11.90;99.90;;;;;;5023898;28;21491;-59
2023/05/12 10:44:55;;;;;;;2.93;2.20;;;12.00;99.90;;;;;;5038267;28;20452;-52
2023/05/12 10:47:28;;;;;;;1.77;1.67;;;12.20;99.90;;;;;;5039303;28;20579;-57
2023/05/12 10:49:59;;;;;;;3.00;2.33;;;12.40;99.90;;;;;;5039531;28;21067;-57
2023/05/12 10:52:24;;;;;;;8.10;2.93;;;12.60;99.90;;;;;;5052821;28;20535;-55
2023/05/12 10:55:02;;;;;;;2.40;2.17;;;12.80;99.90;;;;;;5045751;28;21202;-56
2023/05/12 10:57:29;;;;;;;2.30;2.10;;;13.00;99.90;;;;;;5041613;28;20180;-58
2023/05/12 10:59:59;;;;;;;2.83;2.63;;;13.20;99.90;;;;;;5041436;28;20438;-61
2023/05/12 11:02:29;;;;;;;2.57;2.10;;;13.40;99.90;;;;;;5047014;28;20453;-61
2023/05/12 11:05:05;;;;;;;2.60;2.30;;;13.60;99.90;;;;;;5036798;28;20571;-62
2023/05/12 11:07:32;;;;;;;2.10;1.90;;;13.60;99.90;;;;;;5036904;28;20433;-57
2023/05/12 11:10:00;;;;;;;2.10;1.90;;;13.60;99.90;;;;;;5040248;28;20429;-57
2023/05/12 11:12:28;;;;;;;2.50;1.70;;;13.50;99.90;;;;;;5041462;28;20641;-61
2023/05/12 11:14:54;;;;;;;8.00;2.60;;;13.40;99.90;;;;;;5038073;28;21027;-60
2023/05/12 11:17:20;;;;;;;4.20;1.80;;;13.20;99.90;;;;;;5036978;28;20425;-62
2023/05/12 11:19:47;;;;;;;2.87;2.17;;;13.10;99.90;;;;;;5019361;28;20263;-64
2023/05/12 11:22:15;;;;;;;4.00;2.40;;;13.00;99.90;;;;;;5043502;28;20198;-59
2023/05/12 11:24:41;;;;;;;2.17;1.93;;;12.90;99.90;;;;;;5045031;28;20429;-60
2023/05/12 11:27:12;;;;;;;2.23;2.10;;;12.80;99.90;;;;;;5043458;28;20563;-59
2023/05/12 11:29:40;;;;;;;1.90;1.80;;;12.70;99.90;;;;;;5024012;28;20428;-62
2023/05/12 11:32:07;;;;;;;1.87;1.77;;;12.70;99.90;;;;;;5042972;28;20453;-60
2023/05/12 11:34:33;;;;;;;1.90;1.80;;;12.60;99.90;;;;;;5034163;28;20454;-60
2023/05/12 11:36:58;;;;;;;2.60;2.40;;;12.60;99.90;;;;;;5034934;28;20448;-67
2023/05/12 11:39:26;;;;;;;4.60;2.43;;;12.60;99.90;;;;;;5038029;28;20532;-65
2023/05/12 11:41:53;;;;;;;5.60;2.53;;;12.60;99.90;;;;;;5041287;28;20207;-65
2023/05/12 11:44:20;;;;;;;2.17;1.97;;;12.60;99.90;;;;;;5044303;28;20437;-62
2023/05/12 11:46:57;;;;;;;2.13;1.93;;;12.60;99.90;;;;;;5037088;28;21479;-53
2023/05/12 11:49:22;;;;;;;2.57;2.20;;;12.60;99.90;;;;;;5022266;28;20429;-56
2023/05/12 11:51:51;;;;;;;1.80;1.70;;;12.60;99.90;;;;;;5036274;28;20465;-65
2023/05/12 11:54:17;;;;;;;2.00;1.90;;;12.60;99.90;;;;;;5042842;28;20195;-61
2023/05/12 11:56:50;;;;;;;1.87;1.70;;;12.60;99.90;;;;;;5043081;28;20838;-61
2023/05/12 11:59:27;;;;;;;4.50;2.20;;;12.60;99.90;;;;;;5036049;28;20437;-64
2023/05/12 12:01:53;;;;;;;2.27;1.93;;;12.70;99.90;;;;;;5039369;28;20437;-61
2023/05/12 12:04:29;;;;;;;2.30;2.20;;;12.80;99.90;;;;;;5037504;28;20425;-61
2023/05/12 12:06:55;;;;;;;2.20;2.10;;;12.90;99.90;;;;;;5038167;28;20429;-62
2023/05/12 12:09:32;;;;;;;4.43;2.10;;;13.00;99.90;;;;;;5038123;28;21194;-61
2023/05/12 12:12:00;;;;;;;2.97;2.67;;;13.10;99.90;;;;;;5038539;28;20231;-64
2023/05/12 12:14:25;;;;;;;3.87;2.20;;;13.10;99.90;;;;;;5036526;28;20476;-66
2023/05/12 12:16:51;;;;;;;6.10;2.20;;;13.20;99.90;;;;;;5040198;28;20438;-64
2023/05/12 12:19:16;;;;;;;5.30;2.37;;;13.20;99.90;;;;;;5039074;28;20551;-65
2023/05/12 12:21:42;;;;;;;3.30;2.40;;;13.30;99.90;;;;;;5031842;28;20205;-62
2023/05/12 12:24:07;;;;;;;2.67;2.43;;;13.40;99.90;;;;;;5036118;28;20172;-62
2023/05/12 12:26:33;;;;;;;3.83;1.90;;;13.50;99.90;;;;;;5030500;28;20172;-62
2023/05/12 12:28:59;;;;;;;2.53;2.20;;;13.50;99.90;;;;;;5036548;28;20209;-62
2023/05/12 12:31:24;;;;;;;1.90;1.77;;;13.40;99.90;;;;;;5048534;28;20211;-63
2023/05/12 12:33:50;;;;;;;2.30;1.50;;;13.40;99.90;;;;;;5048408;28;22154;-63
2023/05/12 12:36:16;;;;;;;3.00;2.20;;;13.30;99.90;;;;;;5038168;28;20172;-62
2023/05/12 12:38:41;;;;;;;1.63;1.53;;;13.30;99.90;;;;;;5049041;28;20253;-61
2023/05/12 12:41:07;;;;;;;1.97;1.77;;;13.20;99.90;;;;;;5040871;28;20504;-62
2023/05/12 12:43:33;;;;;;;2.33;2.13;;;13.20;99.90;;;;;;5036736;28;20880;-63